sensor_id;sensor_type;location;lat;lon;timestamp;P1;durP1;ratioP1;P2;durP2;ratioP2
74612;SDS011;63119;51.788;8.824;2023-04-25T00:02:19;12.70;;;4.03;;
74612;SDS011;63119;51.788;8.824;2023-04-25T00:04:44;11.40;;;3.97;;
74612;SDS011;63119;51.788;8.824;2023-04-25T00:07:09;12.93;;;4.20;;
74612;SDS011;63119;51.788;8.824;2023-04-25T00:09:35;11.18;;;4.18;;
74612;SDS011;63119;51.788;8.824;2023-04-25T00:12:00;12.75;;;3.97;;
74612;SDS011;63119;51.788;8.824;2023-04-25T00:14:26;10.10;;;4.10;;
74612;SDS011;63119;51.788;8.824;2023-04-25T00:16:52;13.10;;;4.85;;
74612;SDS011;63119;51.788;8.824;2023-04-25T00:19:18;9.73;;;3.97;;
74612;SDS011;63119;51.788;8.824;2023-04-25T00:21:44;12.17;;;4.37;;
74612;SDS011;63119;51.788;8.824;2023-04-25T00:24:11;14.10;;;4.32;;
74612;SDS011;63119;51.788;8.824;2023-04-25T00:26:37;8.95;;;4.00;;
74612;SDS011;63119;51.788;8.824;2023-04-25T00:29:02;14.90;;;4.85;;
74612;SDS011;63119;51.788;8.824;2023-04-25T00:31:28;12.47;;;4.47;;
74612;SDS011;63119;51.788;8.824;2023-04-25T00:33:54;11.18;;;4.25;;
74612;SDS011;63119;51.788;8.824;2023-04-25T00:36:19;10.88;;;4.32;;
74612;SDS011;63119;51.788;8.824;2023-04-25T00:38:44;13.88;;;4.75;;
74612;SDS011;63119;51.788;8.824;2023-04-25T00:41:10;13.50;;;4.18;;
74612;SDS011;63119;51.788;8.824;2023-04-25T00:43:36;15.87;;;4.60;;
74612;SDS011;63119;51.788;8.824;2023-04-25T00:46:02;12.25;;;4.53;;
74612;SDS011;63119;51.788;8.824;2023-04-25T00:48:27;16.10;;;4.82;;
74612;SDS011;63119;51.788;8.824;2023-04-25T00:50:53;14.73;;;4.27;;
74612;SDS011;63119;51.788;8.824;2023-04-25T00:53:23;13.98;;;3.83;;
74612;SDS011;63119;51.788;8.824;2023-04-25T00:55:49;12.95;;;4.15;;
74612;SDS011;63119;51.788;8.824;2023-04-25T00:58:16;15.23;;;4.78;;
74612;SDS011;63119;51.788;8.824;2023-04-25T01:00:42;12.10;;;4.40;;
74612;SDS011;63119;51.788;8.824;2023-04-25T01:03:08;17.92;;;5.07;;
74612;SDS011;63119;51.788;8.824;2023-04-25T01:05:35;14.85;;;4.65;;
74612;SDS011;63119;51.788;8.824;2023-04-25T01:08:00;12.20;;;4.65;;
74612;SDS011;63119;51.788;8.824;2023-04-25T01:10:25;14.18;;;5.40;;
74612;SDS011;63119;51.788;8.824;2023-04-25T01:12:51;13.37;;;4.27;;
74612;SDS011;63119;51.788;8.824;2023-04-25T01:15:16;15.68;;;4.82;;
74612;SDS011;63119;51.788;8.824;2023-04-25T01:17:41;22.10;;;5.83;;
74612;SDS011;63119;51.788;8.824;2023-04-25T01:20:09;18.75;;;5.82;;
74612;SDS011;63119;51.788;8.824;2023-04-25T01:22:36;11.50;;;5.47;;
74612;SDS011;63119;51.788;8.824;2023-04-25T01:25:01;20.20;;;6.30;;
74612;SDS011;63119;51.788;8.824;2023-04-25T01:27:27;19.23;;;6.88;;
74612;SDS011;63119;51.788;8.824;2023-04-25T01:29:53;19.80;;;8.55;;
74612;SDS011;63119;51.788;8.824;2023-04-25T01:32:19;16.40;;;7.05;;
74612;SDS011;63119;51.788;8.824;2023-04-25T01:34:46;17.00;;;6.55;;
74612;SDS011;63119;51.788;8.824;2023-04-25T01:37:11;16.37;;;6.83;;
74612;SDS011;63119;51.788;8.824;2023-04-25T01:39:37;21.10;;;7.07;;
74612;SDS011;63119;51.788;8.824;2023-04-25T01:42:02;18.10;;;7.00;;
74612;SDS011;63119;51.788;8.824;2023-04-25T01:44:27;16.70;;;6.57;;
74612;SDS011;63119;51.788;8.824;2023-04-25T01:46:53;19.80;;;6.47;;
74612;SDS011;63119;51.788;8.824;2023-04-25T01:49:19;19.35;;;6.60;;
74612;SDS011;63119;51.788;8.824;2023-04-25T01:51:44;16.30;;;7.20;;
74612;SDS011;63119;51.788;8.824;2023-04-25T01:54:09;19.27;;;7.13;;
74612;SDS011;63119;51.788;8.824;2023-04-25T01:56:36;15.50;;;7.05;;
74612;SDS011;63119;51.788;8.824;2023-04-25T01:59:03;18.45;;;7.47;;
74612;SDS011;63119;51.788;8.824;2023-04-25T02:01:29;20.10;;;7.47;;
74612;SDS011;63119;51.788;8.824;2023-04-25T02:03:54;16.98;;;7.72;;
74612;SDS011;63119;51.788;8.824;2023-04-25T02:06:20;19.63;;;7.65;;
74612;SDS011;63119;51.788;8.824;2023-04-25T02:08:45;22.10;;;7.90;;
74612;SDS011;63119;51.788;8.824;2023-04-25T02:11:10;21.67;;;8.00;;
74612;SDS011;63119;51.788;8.824;2023-04-25T02:13:36;20.73;;;8.10;;
74612;SDS011;63119;51.788;8.824;2023-04-25T02:16:01;17.70;;;8.60;;
74612;SDS011;63119;51.788;8.824;2023-04-25T02:18:26;18.42;;;7.38;;
74612;SDS011;63119;51.788;8.824;2023-04-25T02:20:52;19.53;;;7.93;;
74612;SDS011;63119;51.788;8.824;2023-04-25T02:23:17;22.60;;;8.63;;
74612;SDS011;63119;51.788;8.824;2023-04-25T02:25:44;20.90;;;8.48;;
74612;SDS011;63119;51.788;8.824;2023-04-25T02:28:09;22.90;;;8.83;;
74612;SDS011;63119;51.788;8.824;2023-04-25T02:30:35;21.95;;;8.80;;
74612;SDS011;63119;51.788;8.824;2023-04-25T02:33:00;23.50;;;9.07;;
74612;SDS011;63119;51.788;8.824;2023-04-25T02:35:25;18.30;;;8.63;;
74612;SDS011;63119;51.788;8.824;2023-04-25T02:37:50;25.20;;;8.63;;
74612;SDS011;63119;51.788;8.824;2023-04-25T02:40:16;23.80;;;9.97;;
74612;SDS011;63119;51.788;8.824;2023-04-25T02:42:41;17.83;;;8.50;;
74612;SDS011;63119;51.788;8.824;2023-04-25T02:45:06;20.40;;;9.47;;
74612;SDS011;63119;51.788;8.824;2023-04-25T02:47:32;20.10;;;9.52;;
74612;SDS011;63119;51.788;8.824;2023-04-25T02:49:57;23.17;;;9.30;;
74612;SDS011;63119;51.788;8.824;2023-04-25T02:52:23;16.30;;;8.50;;
74612;SDS011;63119;51.788;8.824;2023-04-25T02:54:48;21.70;;;8.87;;
74612;SDS011;63119;51.788;8.824;2023-04-25T02:57:13;20.40;;;9.30;;
74612;SDS011;63119;51.788;8.824;2023-04-25T02:59:38;23.67;;;9.13;;
74612;SDS011;63119;51.788;8.824;2023-04-25T03:02:04;22.20;;;9.40;;
74612;SDS011;63119;51.788;8.824;2023-04-25T03:04:29;23.33;;;8.53;;
74612;SDS011;63119;51.788;8.824;2023-04-25T03:06:54;19.00;;;8.87;;
74612;SDS011;63119;51.788;8.824;2023-04-25T03:09:20;19.85;;;8.73;;
74612;SDS011;63119;51.788;8.824;2023-04-25T03:11:45;23.70;;;10.07;;
74612;SDS011;63119;51.788;8.824;2023-04-25T03:14:11;21.60;;;8.77;;
74612;SDS011;63119;51.788;8.824;2023-04-25T03:16:36;22.83;;;9.45;;
74612;SDS011;63119;51.788;8.824;2023-04-25T03:19:02;20.83;;;8.73;;
74612;SDS011;63119;51.788;8.824;2023-04-25T03:21:28;17.40;;;8.43;;
74612;SDS011;63119;51.788;8.824;2023-04-25T03:23:54;20.20;;;8.68;;
74612;SDS011;63119;51.788;8.824;2023-04-25T03:26:19;23.55;;;9.48;;
74612;SDS011;63119;51.788;8.824;2023-04-25T03:28:45;15.63;;;7.13;;
74612;SDS011;63119;51.788;8.824;2023-04-25T03:31:10;19.43;;;9.37;;
74612;SDS011;63119;51.788;8.824;2023-04-25T03:33:36;19.20;;;8.23;;
74612;SDS011;63119;51.788;8.824;2023-04-25T03:36:01;16.77;;;7.17;;
74612;SDS011;63119;51.788;8.824;2023-04-25T03:38:26;19.20;;;8.82;;
74612;SDS011;63119;51.788;8.824;2023-04-25T03:40:52;15.53;;;7.77;;
74612;SDS011;63119;51.788;8.824;2023-04-25T03:43:17;14.02;;;7.22;;
74612;SDS011;63119;51.788;8.824;2023-04-25T03:45:43;11.67;;;6.53;;
74612;SDS011;63119;51.788;8.824;2023-04-25T03:48:08;12.03;;;6.03;;
74612;SDS011;63119;51.788;8.824;2023-04-25T03:50:33;13.27;;;5.68;;
74612;SDS011;63119;51.788;8.824;2023-04-25T03:52:59;10.50;;;5.63;;
74612;SDS011;63119;51.788;8.824;2023-04-25T03:55:24;13.27;;;5.50;;
74612;SDS011;63119;51.788;8.824;2023-04-25T03:57:49;9.63;;;5.60;;
74612;SDS011;63119;51.788;8.824;2023-04-25T04:00:15;11.73;;;4.67;;
74612;SDS011;63119;51.788;8.824;2023-04-25T04:02:40;11.47;;;4.57;;
74612;SDS011;63119;51.788;8.824;2023-04-25T04:05:05;11.93;;;4.40;;
74612;SDS011;63119;51.788;8.824;2023-04-25T04:07:31;10.63;;;4.40;;
74612;SDS011;63119;51.788;8.824;2023-04-25T04:09:57;10.93;;;3.70;;
74612;SDS011;63119;51.788;8.824;2023-04-25T04:12:23;8.82;;;3.33;;
74612;SDS011;63119;51.788;8.824;2023-04-25T04:14:48;9.20;;;3.30;;
74612;SDS011;63119;51.788;8.824;2023-04-25T04:17:13;11.50;;;3.80;;
74612;SDS011;63119;51.788;8.824;2023-04-25T04:19:39;7.95;;;3.10;;
74612;SDS011;63119;51.788;8.824;2023-04-25T04:22:04;13.40;;;3.90;;
74612;SDS011;63119;51.788;8.824;2023-04-25T04:24:30;9.37;;;3.40;;
74612;SDS011;63119;51.788;8.824;2023-04-25T04:26:55;7.93;;;3.70;;
74612;SDS011;63119;51.788;8.824;2023-04-25T04:29:21;12.35;;;3.63;;
74612;SDS011;63119;51.788;8.824;2023-04-25T04:31:47;13.50;;;3.97;;
74612;SDS011;63119;51.788;8.824;2023-04-25T04:34:14;11.43;;;3.28;;
74612;SDS011;63119;51.788;8.824;2023-04-25T04:36:41;14.73;;;4.00;;
74612;SDS011;63119;51.788;8.824;2023-04-25T04:39:06;13.82;;;3.67;;
74612;SDS011;63119;51.788;8.824;2023-04-25T04:41:32;10.10;;;3.27;;
74612;SDS011;63119;51.788;8.824;2023-04-25T04:43:57;9.43;;;3.27;;
74612;SDS011;63119;51.788;8.824;2023-04-25T04:46:22;11.80;;;3.50;;
74612;SDS011;63119;51.788;8.824;2023-04-25T04:48:49;17.13;;;3.67;;
74612;SDS011;63119;51.788;8.824;2023-04-25T04:51:14;12.30;;;4.05;;
74612;SDS011;63119;51.788;8.824;2023-04-25T04:53:40;12.80;;;3.78;;
74612;SDS011;63119;51.788;8.824;2023-04-25T04:56:05;16.57;;;3.67;;
74612;SDS011;63119;51.788;8.824;2023-04-25T04:58:30;12.70;;;3.65;;
74612;SDS011;63119;51.788;8.824;2023-04-25T05:00:56;8.20;;;3.20;;
74612;SDS011;63119;51.788;8.824;2023-04-25T05:03:21;14.77;;;4.13;;
74612;SDS011;63119;51.788;8.824;2023-04-25T05:05:47;12.77;;;3.67;;
74612;SDS011;63119;51.788;8.824;2023-04-25T05:08:12;14.73;;;4.50;;
74612;SDS011;63119;51.788;8.824;2023-04-25T05:10:37;17.40;;;3.70;;
74612;SDS011;63119;51.788;8.824;2023-04-25T05:13:02;9.80;;;3.37;;
74612;SDS011;63119;51.788;8.824;2023-04-25T05:15:28;16.60;;;4.10;;
74612;SDS011;63119;51.788;8.824;2023-04-25T05:17:53;16.33;;;3.57;;
74612;SDS011;63119;51.788;8.824;2023-04-25T05:20:18;12.20;;;3.90;;
74612;SDS011;63119;51.788;8.824;2023-04-25T05:22:44;20.85;;;4.57;;
74612;SDS011;63119;51.788;8.824;2023-04-25T05:25:09;17.75;;;3.92;;
74612;SDS011;63119;51.788;8.824;2023-04-25T05:27:35;10.55;;;3.28;;
74612;SDS011;63119;51.788;8.824;2023-04-25T05:30:00;12.53;;;4.43;;
74612;SDS011;63119;51.788;8.824;2023-04-25T05:32:26;14.00;;;4.13;;
74612;SDS011;63119;51.788;8.824;2023-04-25T05:34:51;18.25;;;4.68;;
74612;SDS011;63119;51.788;8.824;2023-04-25T05:37:17;16.53;;;4.03;;
74612;SDS011;63119;51.788;8.824;2023-04-25T05:39:42;16.95;;;4.03;;
74612;SDS011;63119;51.788;8.824;2023-04-25T05:42:07;18.70;;;4.90;;
74612;SDS011;63119;51.788;8.824;2023-04-25T05:44:33;13.77;;;4.50;;
74612;SDS011;63119;51.788;8.824;2023-04-25T05:46:58;14.43;;;4.60;;
74612;SDS011;63119;51.788;8.824;2023-04-25T05:49:23;16.53;;;4.43;;
74612;SDS011;63119;51.788;8.824;2023-04-25T05:51:49;21.02;;;4.80;;
74612;SDS011;63119;51.788;8.824;2023-04-25T05:54:14;14.23;;;4.73;;
74612;SDS011;63119;51.788;8.824;2023-04-25T05:56:39;14.63;;;4.50;;
74612;SDS011;63119;51.788;8.824;2023-04-25T05:59:05;16.93;;;4.47;;
74612;SDS011;63119;51.788;8.824;2023-04-25T06:01:30;15.48;;;4.85;;
74612;SDS011;63119;51.788;8.824;2023-04-25T06:03:56;14.27;;;4.77;;
74612;SDS011;63119;51.788;8.824;2023-04-25T06:06:21;13.20;;;4.90;;
74612;SDS011;63119;51.788;8.824;2023-04-25T06:08:46;17.13;;;4.97;;
74612;SDS011;63119;51.788;8.824;2023-04-25T06:11:11;17.93;;;4.83;;
74612;SDS011;63119;51.788;8.824;2023-04-25T06:13:37;16.87;;;4.70;;
74612;SDS011;63119;51.788;8.824;2023-04-25T06:16:02;12.77;;;4.70;;
74612;SDS011;63119;51.788;8.824;2023-04-25T06:18:27;20.23;;;5.75;;
74612;SDS011;63119;51.788;8.824;2023-04-25T06:20:53;19.33;;;5.50;;
74612;SDS011;63119;51.788;8.824;2023-04-25T06:23:18;14.13;;;5.13;;
74612;SDS011;63119;51.788;8.824;2023-04-25T06:25:43;17.47;;;5.30;;
74612;SDS011;63119;51.788;8.824;2023-04-25T06:28:09;14.63;;;5.20;;
74612;SDS011;63119;51.788;8.824;2023-04-25T06:30:34;12.73;;;4.30;;
74612;SDS011;63119;51.788;8.824;2023-04-25T06:32:59;14.87;;;5.50;;
74612;SDS011;63119;51.788;8.824;2023-04-25T06:35:24;16.03;;;5.00;;
74612;SDS011;63119;51.788;8.824;2023-04-25T06:37:50;15.00;;;4.47;;
74612;SDS011;63119;51.788;8.824;2023-04-25T06:40:15;13.73;;;4.10;;
74612;SDS011;63119;51.788;8.824;2023-04-25T06:42:42;11.02;;;4.10;;
74612;SDS011;63119;51.788;8.824;2023-04-25T06:45:07;15.60;;;4.83;;
74612;SDS011;63119;51.788;8.824;2023-04-25T06:47:33;12.57;;;3.72;;
74612;SDS011;63119;51.788;8.824;2023-04-25T06:49:58;11.70;;;4.50;;
74612;SDS011;63119;51.788;8.824;2023-04-25T06:52:24;10.68;;;2.95;;
74612;SDS011;63119;51.788;8.824;2023-04-25T06:54:49;14.67;;;4.47;;
74612;SDS011;63119;51.788;8.824;2023-04-25T06:57:15;8.70;;;4.27;;
74612;SDS011;63119;51.788;8.824;2023-04-25T06:59:40;14.37;;;4.10;;
74612;SDS011;63119;51.788;8.824;2023-04-25T07:02:05;12.80;;;3.70;;
74612;SDS011;63119;51.788;8.824;2023-04-25T07:04:31;22.52;;;4.93;;
74612;SDS011;63119;51.788;8.824;2023-04-25T07:06:56;16.13;;;3.65;;
74612;SDS011;63119;51.788;8.824;2023-04-25T07:09:21;13.57;;;3.40;;
74612;SDS011;63119;51.788;8.824;2023-04-25T07:11:47;14.65;;;4.00;;
74612;SDS011;63119;51.788;8.824;2023-04-25T07:14:12;20.48;;;4.00;;
74612;SDS011;63119;51.788;8.824;2023-04-25T07:16:37;15.83;;;3.93;;
74612;SDS011;63119;51.788;8.824;2023-04-25T07:19:03;11.73;;;3.50;;
74612;SDS011;63119;51.788;8.824;2023-04-25T07:21:28;11.77;;;3.33;;
74612;SDS011;63119;51.788;8.824;2023-04-25T07:23:53;9.47;;;3.00;;
74612;SDS011;63119;51.788;8.824;2023-04-25T07:26:18;9.33;;;3.30;;
74612;SDS011;63119;51.788;8.824;2023-04-25T07:28:44;8.37;;;3.07;;
74612;SDS011;63119;51.788;8.824;2023-04-25T07:31:09;12.20;;;3.33;;
74612;SDS011;63119;51.788;8.824;2023-04-25T07:33:34;12.70;;;3.20;;
74612;SDS011;63119;51.788;8.824;2023-04-25T07:36:00;11.63;;;3.47;;
74612;SDS011;63119;51.788;8.824;2023-04-25T07:38:25;15.88;;;3.17;;
74612;SDS011;63119;51.788;8.824;2023-04-25T07:40:51;14.50;;;3.63;;
74612;SDS011;63119;51.788;8.824;2023-04-25T07:43:16;11.87;;;3.03;;
74612;SDS011;63119;51.788;8.824;2023-04-25T07:45:45;15.77;;;3.13;;
74612;SDS011;63119;51.788;8.824;2023-04-25T07:48:11;11.55;;;2.75;;
74612;SDS011;63119;51.788;8.824;2023-04-25T07:50:36;16.55;;;3.50;;
74612;SDS011;63119;51.788;8.824;2023-04-25T07:53:02;16.53;;;3.27;;
74612;SDS011;63119;51.788;8.824;2023-04-25T07:55:28;11.55;;;3.67;;
74612;SDS011;63119;51.788;8.824;2023-04-25T07:57:53;14.80;;;2.60;;
74612;SDS011;63119;51.788;8.824;2023-04-25T08:00:18;9.80;;;2.35;;
74612;SDS011;63119;51.788;8.824;2023-04-25T08:02:44;11.82;;;2.50;;
74612;SDS011;63119;51.788;8.824;2023-04-25T08:05:09;8.43;;;2.35;;
74612;SDS011;63119;51.788;8.824;2023-04-25T08:07:37;11.65;;;2.85;;
74612;SDS011;63119;51.788;8.824;2023-04-25T08:10:04;14.38;;;2.47;;
74612;SDS011;63119;51.788;8.824;2023-04-25T08:12:30;11.93;;;2.67;;
74612;SDS011;63119;51.788;8.824;2023-04-25T08:14:55;7.67;;;2.70;;
74612;SDS011;63119;51.788;8.824;2023-04-25T08:17:21;5.13;;;1.90;;
74612;SDS011;63119;51.788;8.824;2023-04-25T08:19:46;10.10;;;2.70;;
74612;SDS011;63119;51.788;8.824;2023-04-25T08:22:11;13.73;;;2.43;;
74612;SDS011;63119;51.788;8.824;2023-04-25T08:24:37;15.50;;;2.90;;
74612;SDS011;63119;51.788;8.824;2023-04-25T08:27:02;8.37;;;2.13;;
74612;SDS011;63119;51.788;8.824;2023-04-25T08:29:28;12.88;;;3.08;;
74612;SDS011;63119;51.788;8.824;2023-04-25T08:31:53;9.80;;;2.37;;
74612;SDS011;63119;51.788;8.824;2023-04-25T08:34:18;5.67;;;1.97;;
74612;SDS011;63119;51.788;8.824;2023-04-25T08:36:45;6.88;;;2.45;;
74612;SDS011;63119;51.788;8.824;2023-04-25T08:39:10;5.60;;;1.97;;
74612;SDS011;63119;51.788;8.824;2023-04-25T08:41:38;10.40;;;2.10;;
74612;SDS011;63119;51.788;8.824;2023-04-25T08:44:05;8.05;;;2.63;;
74612;SDS011;63119;51.788;8.824;2023-04-25T08:46:34;12.25;;;2.20;;
74612;SDS011;63119;51.788;8.824;2023-04-25T08:49:02;11.02;;;2.22;;
74612;SDS011;63119;51.788;8.824;2023-04-25T08:51:28;5.73;;;1.70;;
74612;SDS011;63119;51.788;8.824;2023-04-25T08:53:56;11.77;;;2.25;;
74612;SDS011;63119;51.788;8.824;2023-04-25T08:56:33;10.23;;;1.75;;
74612;SDS011;63119;51.788;8.824;2023-04-25T08:58:59;8.75;;;2.70;;
74612;SDS011;63119;51.788;8.824;2023-04-25T09:01:25;7.22;;;1.95;;
74612;SDS011;63119;51.788;8.824;2023-04-25T09:03:51;4.82;;;1.83;;
74612;SDS011;63119;51.788;8.824;2023-04-25T09:06:17;9.50;;;1.77;;
74612;SDS011;63119;51.788;8.824;2023-04-25T09:08:42;7.82;;;1.50;;
74612;SDS011;63119;51.788;8.824;2023-04-25T09:11:08;7.47;;;1.80;;
74612;SDS011;63119;51.788;8.824;2023-04-25T09:13:33;7.80;;;2.13;;
74612;SDS011;63119;51.788;8.824;2023-04-25T09:15:58;9.27;;;1.98;;
74612;SDS011;63119;51.788;8.824;2023-04-25T09:18:24;9.53;;;1.63;;
74612;SDS011;63119;51.788;8.824;2023-04-25T09:21:07;8.18;;;1.92;;
74612;SDS011;63119;51.788;8.824;2023-04-25T09:23:41;4.65;;;1.60;;
74612;SDS011;63119;51.788;8.824;2023-04-25T09:26:09;9.35;;;2.10;;
74612;SDS011;63119;51.788;8.824;2023-04-25T09:28:35;7.18;;;2.00;;
74612;SDS011;63119;51.788;8.824;2023-04-25T09:31:01;6.65;;;1.50;;
74612;SDS011;63119;51.788;8.824;2023-04-25T09:33:30;7.53;;;1.30;;
74612;SDS011;63119;51.788;8.824;2023-04-25T09:36:04;5.18;;;1.30;;
74612;SDS011;63119;51.788;8.824;2023-04-25T09:38:32;6.03;;;1.90;;
74612;SDS011;63119;51.788;8.824;2023-04-25T09:41:05;7.32;;;1.60;;
74612;SDS011;63119;51.788;8.824;2023-04-25T09:43:30;7.13;;;1.98;;
74612;SDS011;63119;51.788;8.824;2023-04-25T09:45:55;5.73;;;2.03;;
74612;SDS011;63119;51.788;8.824;2023-04-25T09:48:25;3.95;;;1.45;;
74612;SDS011;63119;51.788;8.824;2023-04-25T09:51:10;8.02;;;2.50;;
74612;SDS011;63119;51.788;8.824;2023-04-25T09:53:39;7.95;;;1.67;;
74612;SDS011;63119;51.788;8.824;2023-04-25T09:56:09;4.25;;;1.17;;
74612;SDS011;63119;51.788;8.824;2023-04-25T09:58:37;4.28;;;1.38;;
74612;SDS011;63119;51.788;8.824;2023-04-25T10:01:05;5.05;;;1.42;;
74612;SDS011;63119;51.788;8.824;2023-04-25T10:03:33;5.00;;;1.98;;
74612;SDS011;63119;51.788;8.824;2023-04-25T10:06:00;6.13;;;1.60;;
74612;SDS011;63119;51.788;8.824;2023-04-25T10:08:32;3.88;;;1.30;;
74612;SDS011;63119;51.788;8.824;2023-04-25T10:10:59;7.07;;;1.60;;
74612;SDS011;63119;51.788;8.824;2023-04-25T10:13:25;5.85;;;1.90;;
74612;SDS011;63119;51.788;8.824;2023-04-25T10:15:52;8.27;;;2.05;;
74612;SDS011;63119;51.788;8.824;2023-04-25T10:18:19;7.45;;;1.20;;
74612;SDS011;63119;51.788;8.824;2023-04-25T10:20:44;9.10;;;1.42;;
74612;SDS011;63119;51.788;8.824;2023-04-25T10:23:12;5.13;;;1.50;;
74612;SDS011;63119;51.788;8.824;2023-04-25T10:25:40;3.95;;;1.23;;
74612;SDS011;63119;51.788;8.824;2023-04-25T10:28:06;5.97;;;1.13;;
74612;SDS011;63119;51.788;8.824;2023-04-25T10:30:31;3.47;;;1.60;;
74612;SDS011;63119;51.788;8.824;2023-04-25T10:32:58;5.30;;;1.20;;
74612;SDS011;63119;51.788;8.824;2023-04-25T10:35:27;4.78;;;1.30;;
74612;SDS011;63119;51.788;8.824;2023-04-25T10:40:23;2.10;;;1.23;;
74612;SDS011;63119;51.788;8.824;2023-04-25T10:42:51;7.55;;;1.98;;
74612;SDS011;63119;51.788;8.824;2023-04-25T10:45:17;4.88;;;1.23;;
74612;SDS011;63119;51.788;8.824;2023-04-25T10:47:45;4.67;;;1.10;;
74612;SDS011;63119;51.788;8.824;2023-04-25T10:50:11;8.48;;;1.58;;
74612;SDS011;63119;51.788;8.824;2023-04-25T10:52:40;5.93;;;1.20;;
74612;SDS011;63119;51.788;8.824;2023-04-25T10:55:05;7.93;;;1.88;;
74612;SDS011;63119;51.788;8.824;2023-04-25T10:57:32;3.45;;;1.27;;
74612;SDS011;63119;51.788;8.824;2023-04-25T11:00:08;3.05;;;1.65;;
74612;SDS011;63119;51.788;8.824;2023-04-25T11:02:37;4.03;;;1.35;;
74612;SDS011;63119;51.788;8.824;2023-04-25T11:05:03;6.28;;;1.30;;
74612;SDS011;63119;51.788;8.824;2023-04-25T11:07:37;5.60;;;1.25;;
74612;SDS011;63119;51.788;8.824;2023-04-25T11:10:09;4.28;;;0.90;;
74612;SDS011;63119;51.788;8.824;2023-04-25T11:12:34;5.83;;;1.30;;
74612;SDS011;63119;51.788;8.824;2023-04-25T11:15:03;9.10;;;1.60;;
74612;SDS011;63119;51.788;8.824;2023-04-25T11:17:30;3.63;;;1.27;;
74612;SDS011;63119;51.788;8.824;2023-04-25T11:19:55;4.20;;;1.25;;
74612;SDS011;63119;51.788;8.824;2023-04-25T11:22:21;5.45;;;1.27;;
74612;SDS011;63119;51.788;8.824;2023-04-25T11:24:47;5.35;;;1.60;;
74612;SDS011;63119;51.788;8.824;2023-04-25T11:27:12;7.88;;;1.58;;
74612;SDS011;63119;51.788;8.824;2023-04-25T11:29:38;3.78;;;1.45;;
74612;SDS011;63119;51.788;8.824;2023-04-25T11:32:03;4.53;;;1.37;;
74612;SDS011;63119;51.788;8.824;2023-04-25T11:34:29;6.15;;;1.17;;
74612;SDS011;63119;51.788;8.824;2023-04-25T11:36:58;4.72;;;1.50;;
74612;SDS011;63119;51.788;8.824;2023-04-25T11:39:25;4.53;;;1.25;;
74612;SDS011;63119;51.788;8.824;2023-04-25T11:41:50;3.42;;;1.20;;
74612;SDS011;63119;51.788;8.824;2023-04-25T11:44:16;5.05;;;1.40;;
74612;SDS011;63119;51.788;8.824;2023-04-25T11:46:43;3.55;;;1.63;;
74612;SDS011;63119;51.788;8.824;2023-04-25T11:49:08;7.53;;;1.50;;
74612;SDS011;63119;51.788;8.824;2023-04-25T11:51:40;5.72;;;1.33;;
74612;SDS011;63119;51.788;8.824;2023-04-25T11:54:10;4.00;;;1.30;;
74612;SDS011;63119;51.788;8.824;2023-04-25T11:56:36;4.70;;;1.75;;
74612;SDS011;63119;51.788;8.824;2023-04-25T11:59:02;4.38;;;1.40;;
74612;SDS011;63119;51.788;8.824;2023-04-25T12:01:30;2.30;;;1.40;;
74612;SDS011;63119;51.788;8.824;2023-04-25T12:03:57;5.57;;;1.30;;
74612;SDS011;63119;51.788;8.824;2023-04-25T12:06:26;6.97;;;1.88;;
74612;SDS011;63119;51.788;8.824;2023-04-25T12:09:03;5.25;;;1.30;;
74612;SDS011;63119;51.788;8.824;2023-04-25T12:11:30;3.20;;;1.35;;
74612;SDS011;63119;51.788;8.824;2023-04-25T12:13:56;4.90;;;1.40;;
74612;SDS011;63119;51.788;8.824;2023-04-25T12:16:27;2.65;;;1.00;;
74612;SDS011;63119;51.788;8.824;2023-04-25T12:18:53;5.53;;;1.43;;
74612;SDS011;63119;51.788;8.824;2023-04-25T12:21:20;6.13;;;2.35;;
74612;SDS011;63119;51.788;8.824;2023-04-25T12:23:45;5.55;;;1.40;;
74612;SDS011;63119;51.788;8.824;2023-04-25T12:26:11;4.55;;;1.20;;
74612;SDS011;63119;51.788;8.824;2023-04-25T12:28:36;4.70;;;1.40;;
74612;SDS011;63119;51.788;8.824;2023-04-25T12:31:02;4.43;;;1.30;;
74612;SDS011;63119;51.788;8.824;2023-04-25T12:33:33;3.60;;;1.35;;
74612;SDS011;63119;51.788;8.824;2023-04-25T12:35:59;5.03;;;1.40;;
74612;SDS011;63119;51.788;8.824;2023-04-25T12:38:29;2.85;;;1.20;;
74612;SDS011;63119;51.788;8.824;2023-04-25T12:40:56;3.00;;;1.00;;
74612;SDS011;63119;51.788;8.824;2023-04-25T12:43:23;5.20;;;1.15;;
74612;SDS011;63119;51.788;8.824;2023-04-25T12:45:49;2.97;;;1.10;;
74612;SDS011;63119;51.788;8.824;2023-04-25T12:48:15;2.05;;;0.90;;
74612;SDS011;63119;51.788;8.824;2023-04-25T12:50:41;9.15;;;1.88;;
74612;SDS011;63119;51.788;8.824;2023-04-25T12:53:07;5.40;;;1.10;;
74612;SDS011;63119;51.788;8.824;2023-04-25T12:55:32;2.87;;;1.63;;
74612;SDS011;63119;51.788;8.824;2023-04-25T12:57:57;3.90;;;1.00;;
74612;SDS011;63119;51.788;8.824;2023-04-25T13:00:23;4.17;;;1.20;;
74612;SDS011;63119;51.788;8.824;2023-04-25T13:02:48;4.53;;;1.52;;
74612;SDS011;63119;51.788;8.824;2023-04-25T13:05:13;6.13;;;1.33;;
74612;SDS011;63119;51.788;8.824;2023-04-25T13:07:39;4.77;;;0.93;;
74612;SDS011;63119;51.788;8.824;2023-04-25T13:10:04;2.05;;;0.70;;
74612;SDS011;63119;51.788;8.824;2023-04-25T13:12:30;3.97;;;1.35;;
74612;SDS011;63119;51.788;8.824;2023-04-25T13:14:56;2.03;;;1.00;;
74612;SDS011;63119;51.788;8.824;2023-04-25T13:17:21;2.37;;;1.10;;
74612;SDS011;63119;51.788;8.824;2023-04-25T13:19:46;5.20;;;1.47;;
74612;SDS011;63119;51.788;8.824;2023-04-25T13:22:11;5.07;;;2.27;;
74612;SDS011;63119;51.788;8.824;2023-04-25T13:24:37;5.95;;;2.63;;
74612;SDS011;63119;51.788;8.824;2023-04-25T13:27:02;4.57;;;1.77;;
74612;SDS011;63119;51.788;8.824;2023-04-25T13:29:28;4.45;;;1.30;;
74612;SDS011;63119;51.788;8.824;2023-04-25T13:31:53;3.50;;;1.40;;
74612;SDS011;63119;51.788;8.824;2023-04-25T13:34:18;3.73;;;1.20;;
74612;SDS011;63119;51.788;8.824;2023-04-25T13:36:43;5.30;;;1.20;;
74612;SDS011;63119;51.788;8.824;2023-04-25T13:39:10;3.25;;;1.10;;
74612;SDS011;63119;51.788;8.824;2023-04-25T13:41:36;2.83;;;1.10;;
74612;SDS011;63119;51.788;8.824;2023-04-25T13:44:01;5.22;;;0.90;;
74612;SDS011;63119;51.788;8.824;2023-04-25T13:46:27;3.93;;;1.50;;
74612;SDS011;63119;51.788;8.824;2023-04-25T13:48:52;8.03;;;1.80;;
74612;SDS011;63119;51.788;8.824;2023-04-25T13:51:17;4.00;;;1.10;;
74612;SDS011;63119;51.788;8.824;2023-04-25T13:53:43;3.72;;;1.73;;
74612;SDS011;63119;51.788;8.824;2023-04-25T13:56:08;3.72;;;1.10;;
74612;SDS011;63119;51.788;8.824;2023-04-25T13:58:34;4.40;;;1.00;;
74612;SDS011;63119;51.788;8.824;2023-04-25T14:01:00;1.88;;;0.95;;
74612;SDS011;63119;51.788;8.824;2023-04-25T14:03:25;4.77;;;1.00;;
74612;SDS011;63119;51.788;8.824;2023-04-25T14:05:51;1.53;;;0.70;;
74612;SDS011;63119;51.788;8.824;2023-04-25T14:08:16;3.17;;;0.70;;
74612;SDS011;63119;51.788;8.824;2023-04-25T14:10:41;3.57;;;1.10;;
74612;SDS011;63119;51.788;8.824;2023-04-25T14:13:06;2.10;;;0.80;;
74612;SDS011;63119;51.788;8.824;2023-04-25T14:15:32;2.80;;;0.90;;
74612;SDS011;63119;51.788;8.824;2023-04-25T14:17:58;2.88;;;1.27;;
74612;SDS011;63119;51.788;8.824;2023-04-25T14:20:24;6.05;;;1.38;;
74612;SDS011;63119;51.788;8.824;2023-04-25T14:25:17;2.97;;;0.93;;
74612;SDS011;63119;51.788;8.824;2023-04-25T14:27:42;3.27;;;0.97;;
74612;SDS011;63119;51.788;8.824;2023-04-25T14:30:09;5.10;;;0.90;;
74612;SDS011;63119;51.788;8.824;2023-04-25T14:32:34;4.13;;;1.10;;
74612;SDS011;63119;51.788;8.824;2023-04-25T14:35:00;3.47;;;1.10;;
74612;SDS011;63119;51.788;8.824;2023-04-25T14:37:25;3.50;;;0.90;;
74612;SDS011;63119;51.788;8.824;2023-04-25T14:39:50;3.35;;;0.90;;